Herbert, Illinois
Current Conditions -  °F | °C
As of 4:35 AM on Monday 22 Dec 2014 (Local Time) from KDKB Reporting Station
Haze Haze  
Wind Chill: 20°   Ceiling: 4400
Heat Index: 30°   Visibility: 5mi
Dew Point: 28°   Wind: 13mph
Humidity: 91%   Direction: 140°SE
Pressure: 29.93"   Gusts: NA
Location:  42.1119°N, 88.7806°W
Report Text: KDKB 221035Z AUTO 14011KT 5SM BR BKN044 OVC050 M01/M02 A2993 RMK AO2 T10101023
Loading
Personal Weather Stations






























Interactive Weather Map New forecast layout! Learn more

10-Day Weather Forecast

Advertisements
Track Severe Weather on mobile